createdAt,value
2022-09-04T00:00:18.871Z,101247.63
2022-09-04T00:03:08.493Z,101253.38
2022-09-04T00:05:48.603Z,101248.69
2022-09-04T00:08:48.064Z,101255.16
2022-09-04T00:11:32.853Z,101254.50
2022-09-04T00:14:11.539Z,101255.38
2022-09-04T00:16:51.069Z,101257.91
2022-09-04T00:19:32.144Z,101260.28
2022-09-04T00:22:20.512Z,101268.31
2022-09-04T00:25:00.295Z,101265.63
2022-09-04T00:27:44.174Z,101272.56
2022-09-04T00:30:21.803Z,101278.28
2022-09-04T00:33:02.401Z,101269.97
2022-09-04T00:35:39.401Z,101278.47
2022-09-04T00:38:17.859Z,101281.72
2022-09-04T00:41:02.964Z,101286.53
2022-09-04T00:44:13.502Z,101288.72
2022-09-04T00:47:08.257Z,101295.53
2022-09-04T00:49:57.388Z,101299.25
2022-09-04T00:52:46.816Z,101294.09
2022-09-04T00:55:39.911Z,101292.63
2022-09-04T00:58:38.442Z,101294.38
2022-09-04T01:01:17.515Z,101289.16
2022-09-04T01:04:22.678Z,101286.44
2022-09-04T01:07:24.652Z,101292.81
2022-09-04T01:10:20.961Z,101303.34
2022-09-04T01:13:01.094Z,101296.16
2022-09-04T01:15:41.196Z,101302.19
2022-09-04T01:18:19.627Z,101303.53
2022-09-04T01:21:17.662Z,101302.75
2022-09-04T01:24:19.696Z,101302.84
2022-09-04T01:27:01.999Z,101304.06
2022-09-04T01:29:47.796Z,101309.41
2022-09-04T01:32:33.786Z,101306.69
2022-09-04T01:35:16.900Z,101313.50
2022-09-04T01:37:54.814Z,101317.16
2022-09-04T01:40:36.863Z,101323.63
2022-09-04T01:46:15.823Z,101320.66
2022-09-04T01:48:53.042Z,101315.50
2022-09-04T01:51:35.184Z,101321.88
2022-09-04T01:54:19.814Z,101325.13
2022-09-04T01:57:07.827Z,101319.28
2022-09-04T01:59:54.031Z,101329.22
2022-09-04T02:02:33.044Z,101321.22
2022-09-04T02:05:15.271Z,101329.22
2022-09-04T02:07:50.711Z,101338.16
2022-09-04T02:10:31.389Z,101334.13
2022-09-04T02:13:15.965Z,101339.00
2022-09-04T02:16:00.757Z,101332.72
2022-09-04T02:18:45.508Z,101340.06
2022-09-04T02:21:25.388Z,101339.53
2022-09-04T02:24:09.230Z,101342.34
2022-09-04T02:26:48.518Z,101342.41
2022-09-04T02:29:29.108Z,101342.41
2022-09-04T02:32:18.603Z,101349.31
2022-09-04T02:35:00.316Z,101345.72
2022-09-04T02:37:43.175Z,101350.19
2022-09-04T02:40:21.512Z,101357.09
2022-09-04T02:43:08.825Z,101352.28
2022-09-04T02:45:46.955Z,101361.50
2022-09-04T02:48:31.503Z,101362.28
2022-09-04T02:51:18.430Z,101366.81
2022-09-04T02:54:00.410Z,101365.69
2022-09-04T02:56:44.310Z,101363.00
2022-09-04T02:59:36.185Z,101368.66
2022-09-04T03:02:19.769Z,101367.06
2022-09-04T03:05:02.083Z,101370.31
2022-09-04T03:07:37.687Z,101377.47
2022-09-04T03:10:14.210Z,101371.09
2022-09-04T03:12:51.461Z,101377.09
2022-09-04T03:15:30.314Z,101381.94
2022-09-04T03:18:08.715Z,101376.47
2022-09-04T03:20:49.180Z,101375.41
2022-09-04T03:23:25.762Z,101380.25
2022-09-04T03:26:17.305Z,101388.63
2022-09-04T03:29:02.094Z,101394.19
2022-09-04T03:31:41.650Z,101385.50
2022-09-04T03:34:37.132Z,101387.56
2022-09-04T03:37:32.142Z,101389.94
2022-09-04T03:40:15.247Z,101396.78
2022-09-04T03:43:04.905Z,101394.88
2022-09-04T03:45:46.747Z,101395.22
2022-09-04T03:48:31.284Z,101403.75
2022-09-04T03:51:14.411Z,101396.59
2022-09-04T03:53:56.335Z,101393.81
2022-09-04T03:56:52.132Z,101402.66
2022-09-04T03:59:38.288Z,101402.66
2022-09-04T04:02:24.220Z,101405.91
2022-09-04T04:05:26.463Z,101406.34
2022-09-04T04:08:30.507Z,101409.19
2022-09-04T04:11:25.079Z,101404.88
2022-09-04T04:14:25.495Z,101405.75
2022-09-04T04:17:12.609Z,101408.81
2022-09-04T04:20:02.631Z,101408.19
2022-09-04T04:22:51.467Z,101407.44
2022-09-04T04:25:38.721Z,101412.69
2022-09-04T04:28:25.607Z,101411.94
2022-09-04T04:31:11.112Z,101416.34
2022-09-04T04:33:56.636Z,101425.88
2022-09-04T04:36:37.794Z,101424.41
2022-09-04T04:39:19.543Z,101424.44
2022-09-04T04:42:17.353Z,101438.38
2022-09-04T04:45:31.855Z,101437.66
2022-09-04T04:48:37.299Z,101432.50
2022-09-04T04:51:31.944Z,101437.28
2022-09-04T04:54:22.322Z,101433.66
2022-09-04T04:57:02.069Z,101423.66
2022-09-04T04:59:44.723Z,101437.28
2022-09-04T05:02:29.928Z,101432.56
2022-09-04T05:05:13.417Z,101447.28
2022-09-04T05:07:53.188Z,101446.50
2022-09-04T05:10:33.138Z,101454.13
2022-09-04T05:13:16.516Z,101446.25
2022-09-04T05:16:08.892Z,101460.19
2022-09-04T05:18:50.196Z,101456.19
2022-09-04T05:21:30.037Z,101462.19
2022-09-04T05:24:09.510Z,101471.78
2022-09-04T05:26:47.450Z,101464.69
2022-09-04T05:29:30.529Z,101474.16
2022-09-04T05:32:17.609Z,101477.38
2022-09-04T05:35:08.084Z,101478.19
2022-09-04T05:37:52.044Z,101488.53
2022-09-04T05:40:30.913Z,101490.09
2022-09-04T05:43:15.228Z,101490.22
2022-09-04T05:45:58.576Z,101493.44
2022-09-04T05:48:42.406Z,101495.88
2022-09-04T05:51:51.482Z,101499.78
2022-09-04T05:54:51.041Z,101506.94
2022-09-04T05:57:36.936Z,101503.38
2022-09-04T06:00:13.023Z,101509.69
2022-09-04T06:03:28.941Z,101510.09
2022-09-04T06:06:11.770Z,101507.72
2022-09-04T06:09:07.686Z,101513.97
2022-09-04T06:11:58.691Z,101531.53
2022-09-04T06:14:48.432Z,101532.28
2022-09-04T06:17:34.828Z,101527.44
2022-09-04T06:20:40.086Z,101523.78
2022-09-04T06:23:27.750Z,101527.44
2022-09-04T06:26:44.909Z,101534.16
2022-09-04T06:29:42.751Z,101534.22
2022-09-04T06:32:36.029Z,101545.72
2022-09-04T06:35:19.822Z,101544.09
2022-09-04T06:38:07.298Z,101544.88
2022-09-04T06:40:53.566Z,101537.59
2022-09-04T06:43:38.009Z,101546.69
2022-09-04T06:46:20.197Z,101546.69
2022-09-04T06:49:04.057Z,101547.34
2022-09-04T06:51:57.684Z,101556.06
2022-09-04T06:54:37.240Z,101552.06
2022-09-04T06:57:28.307Z,101547.72
2022-09-04T07:00:07.228Z,101554.66
2022-09-04T07:03:03.274Z,101557.53
2022-09-04T07:05:46.019Z,101559.44
2022-09-04T07:08:33.520Z,101558.63
2022-09-04T07:11:19.411Z,101573.69
2022-09-04T07:14:19.994Z,101567.22
2022-09-04T07:17:07.722Z,101571.09
2022-09-04T07:20:03.681Z,101577.88
2022-09-04T07:22:59.014Z,101582.91
2022-09-04T07:25:44.252Z,101583.75
2022-09-04T07:28:35.843Z,101576.41
2022-09-04T07:31:13.180Z,101579.38
2022-09-04T07:33:57.280Z,101589.56
2022-09-04T07:36:37.486Z,101588.44
2022-09-04T07:39:18.801Z,101587.19
2022-09-04T07:42:01.955Z,101589.34
2022-09-04T07:44:42.552Z,101590.50
2022-09-04T07:47:20.602Z,101591.97
2022-09-04T07:50:02.062Z,101597.41
2022-09-04T07:52:54.651Z,101597.91
2022-09-04T07:55:39.485Z,101605.56
2022-09-04T07:58:28.818Z,101605.41
2022-09-04T08:01:18.458Z,101609.66
2022-09-04T08:04:09.733Z,101610.56
2022-09-04T08:06:49.694Z,101615.31
2022-09-04T08:09:47.879Z,101621.53
2022-09-04T08:12:38.503Z,101618.38
2022-09-04T08:15:19.820Z,101634.56
2022-09-04T08:18:08.390Z,101632.16
2022-09-04T08:20:45.870Z,101630.91
2022-09-04T08:23:36.125Z,101635.69
2022-09-04T08:26:19.071Z,101642.03
2022-09-04T08:29:05.874Z,101645.06
2022-09-04T08:31:44.440Z,101641.88
2022-09-04T08:34:46.143Z,101645.72
2022-09-04T08:37:26.601Z,101644.75
2022-09-04T08:40:24.379Z,101640.13
2022-09-04T08:43:26.203Z,101647.81
2022-09-04T08:46:40.653Z,101652.75
2022-09-04T08:49:45.102Z,101655.22
2022-09-04T08:52:54.063Z,101657.13
2022-09-04T08:55:40.427Z,101657.91
2022-09-04T08:58:49.661Z,101659.81
2022-09-04T09:01:46.652Z,101659.00
2022-09-04T09:04:47.691Z,101658.09
2022-09-04T09:07:49.148Z,101663.88
2022-09-04T09:10:47.271Z,101662.94
2022-09-04T09:13:50.784Z,101671.63
2022-09-04T09:16:24.117Z,101670.41
2022-09-04T09:19:12.257Z,101671.69
2022-09-04T09:21:49.255Z,101674.53
2022-09-04T09:24:55.539Z,101675.44
2022-09-04T09:28:06.806Z,101671.13
2022-09-04T09:31:05.273Z,101676.41
2022-09-04T09:34:11.273Z,101672.44
2022-09-04T09:37:14.318Z,101674.78
2022-09-04T09:40:16.737Z,101671.13
2022-09-04T09:43:26.831Z,101667.28
2022-09-04T09:46:26.770Z,101668.88
2022-09-04T09:49:51.861Z,101670.50
2022-09-04T09:53:05.508Z,101666.63
2022-09-04T09:56:04.694Z,101677.28
2022-09-04T09:59:04.934Z,101681.47
2022-09-04T10:02:00.438Z,101669.94
2022-09-04T10:04:58.910Z,101674.53
2022-09-04T10:07:59.062Z,101685.31
2022-09-04T10:10:54.524Z,101678.25
2022-09-04T10:13:41.990Z,101687.81
2022-09-04T10:17:00.593Z,101687.00
2022-09-04T10:20:05.700Z,101689.19
2022-09-04T10:22:57.464Z,101686.22
2022-09-04T10:26:01.191Z,101680.72
2022-09-04T10:29:11.972Z,101699.63
2022-09-04T10:32:03.280Z,101686.84
2022-09-04T10:34:54.357Z,101687.63
2022-09-04T10:37:49.350Z,101687.81
2022-09-04T10:40:39.582Z,101689.78
2022-09-04T10:43:26.828Z,101696.34
2022-09-04T10:46:09.713Z,101699.91
2022-09-04T10:49:11.383Z,101697.66
2022-09-04T10:52:12.455Z,101696.84
2022-09-04T10:55:11.722Z,101696.91
2022-09-04T10:58:08.709Z,101700.72
2022-09-04T11:00:55.894Z,101695.63
2022-09-04T11:03:44.886Z,101697.53
2022-09-04T11:07:03.022Z,101699.56
2022-09-04T11:09:51.806Z,101690.75
2022-09-04T11:12:44.136Z,101691.88
2022-09-04T11:15:43.754Z,101704.09
2022-09-04T11:19:10.320Z,101704.28
2022-09-04T11:25:12.458Z,101689.06
2022-09-04T11:28:12.976Z,101687.59
2022-09-04T11:31:02.805Z,101689.16
2022-09-04T11:34:16.254Z,101690.91
2022-09-04T11:37:15.417Z,101687.78
2022-09-04T11:40:10.079Z,101695.44
2022-09-04T11:42:58.806Z,101691.50
2022-09-04T11:46:18.996Z,101689.88
2022-09-04T11:49:13.391Z,101690.91
2022-09-04T11:52:04.335Z,101697.09
2022-09-04T11:55:01.120Z,101682.06
2022-09-04T11:57:48.619Z,101689.03
2022-09-04T12:00:22.210Z,101688.94
2022-09-04T12:03:36.514Z,101694.03
2022-09-04T12:06:35.027Z,101689.94
2022-09-04T12:09:29.646Z,101694.91
2022-09-04T12:12:23.746Z,101691.50
2022-09-04T12:15:31.118Z,101693.34
2022-09-04T12:18:25.660Z,101695.72
2022-09-04T12:21:41.088Z,101697.88
2022-09-04T12:24:42.013Z,101698.28
2022-09-04T12:27:37.189Z,101694.47
2022-09-04T12:30:20.293Z,101699.84
2022-09-04T12:33:35.452Z,101699.84
2022-09-04T12:36:28.230Z,101703.47
2022-09-04T12:39:35.748Z,101711.72
2022-09-04T12:42:15.204Z,101711.03
2022-09-04T12:45:00.312Z,101713.34
2022-09-04T12:47:46.350Z,101719.56
2022-09-04T12:50:30.603Z,101714.41
2022-09-04T12:53:30.736Z,101719.38
2022-09-04T12:56:11.616Z,101712.88
2022-09-04T12:59:07.180Z,101712.63
2022-09-04T13:02:01.560Z,101719.81
2022-09-04T13:04:42.634Z,101723.50
2022-09-04T13:07:32.180Z,101723.03
2022-09-04T13:10:17.872Z,101718.19
2022-09-04T13:13:04.825Z,101723.88
2022-09-04T13:15:50.131Z,101717.03
2022-09-04T13:18:44.893Z,101719.31
2022-09-04T13:21:31.117Z,101725.78
2022-09-04T13:24:19.905Z,101718.59
2022-09-04T13:27:07.076Z,101716.97
2022-09-04T13:29:51.474Z,101719.94
2022-09-04T13:32:41.762Z,101716.53
2022-09-04T13:35:28.141Z,101715.88
2022-09-04T13:38:36.120Z,101713.34
2022-09-04T13:41:33.708Z,101710.84
2022-09-04T13:44:51.057Z,101712.31
2022-09-04T13:47:32.096Z,101715.94
2022-09-04T13:50:12.078Z,101718.47
2022-09-04T13:52:53.486Z,101716.53
2022-09-04T13:55:30.724Z,101713.00
2022-09-04T13:58:10.559Z,101714.66
2022-09-04T14:00:49.375Z,101709.50
2022-09-04T14:03:33.469Z,101716.94
2022-09-04T14:06:11.326Z,101711.09
2022-09-04T14:09:04.932Z,101709.38
2022-09-04T14:11:57.953Z,101706.75
2022-09-04T14:14:59.620Z,101712.69
2022-09-04T14:17:38.708Z,101708.63
2022-09-04T14:20:20.674Z,101703.13
2022-09-04T14:23:06.582Z,101705.56
2022-09-04T14:25:51.184Z,101695.84
2022-09-04T14:28:35.485Z,101691.91
2022-09-04T14:31:18.635Z,101696.88
2022-09-04T14:34:02.086Z,101695.00
2022-09-04T14:36:42.332Z,101697.72
2022-09-04T14:39:21.368Z,101696.13
2022-09-04T14:42:22.217Z,101695.97
2022-09-04T14:45:13.233Z,101698.28
2022-09-04T14:47:52.028Z,101701.38
2022-09-04T14:50:30.323Z,101695.56
2022-09-04T14:53:06.685Z,101696.97
2022-09-04T14:55:43.108Z,101694.88
2022-09-04T14:58:25.497Z,101696.31
2022-09-04T15:01:01.218Z,101693.63
2022-09-04T15:03:42.045Z,101692.31
2022-09-04T15:06:22.617Z,101693.31
2022-09-04T15:08:58.936Z,101701.63
2022-09-04T15:11:38.159Z,101693.06
2022-09-04T15:14:26.212Z,101691.72
2022-09-04T15:17:03.427Z,101684.13
2022-09-04T15:19:46.499Z,101686.75
2022-09-04T15:22:25.300Z,101686.88
2022-09-04T15:25:05.388Z,101680.03
2022-09-04T15:27:47.038Z,101683.63
2022-09-04T15:30:23.151Z,101686.03
2022-09-04T15:33:23.662Z,101683.22
2022-09-04T15:36:07.727Z,101686.28
2022-09-04T15:38:50.617Z,101687.84
2022-09-04T15:41:37.282Z,101685.00
2022-09-04T15:44:18.650Z,101682.50
2022-09-04T15:47:02.649Z,101684.25
2022-09-04T15:49:47.116Z,101689.09
2022-09-04T15:52:30.757Z,101685.25
2022-09-04T15:55:10.374Z,101686.75
2022-09-04T15:57:51.925Z,101681.84
2022-09-04T16:00:32.034Z,101672.53
2022-09-04T16:03:15.120Z,101675.47
2022-09-04T16:05:51.829Z,101683.69
2022-09-04T16:08:30.111Z,101677.69
2022-09-04T16:11:07.735Z,101678.44
2022-09-04T16:13:48.432Z,101673.06
2022-09-04T16:16:26.115Z,101685.84
2022-09-04T16:19:12.231Z,101677.22
2022-09-04T16:21:55.242Z,101674.72
2022-09-04T16:24:40.348Z,101678.03
2022-09-04T16:27:17.496Z,101674.72
2022-09-04T16:29:57.580Z,101679.50
2022-09-04T16:32:34.148Z,101689.47
2022-09-04T16:35:18.263Z,101680.50
2022-09-04T16:37:57.457Z,101686.66
2022-09-04T16:40:34.119Z,101682.81
2022-09-04T16:43:19.470Z,101688.44
2022-09-04T16:45:58.992Z,101684.03
2022-09-04T16:48:36.079Z,101683.38
2022-09-04T16:51:39.224Z,101679.28
2022-09-04T16:54:17.513Z,101682.72
2022-09-04T16:56:53.382Z,101684.31
2022-09-04T16:59:49.525Z,101682.78
2022-09-04T17:02:30.753Z,101687.88
2022-09-04T17:05:18.465Z,101689.38
2022-09-04T17:07:59.173Z,101687.28
2022-09-04T17:10:36.844Z,101686.34
2022-09-04T17:13:16.497Z,101686.91
2022-09-04T17:15:58.366Z,101683.16
2022-09-04T17:18:32.580Z,101682.50
2022-09-04T17:25:35.426Z,101680.75
2022-09-04T17:28:56.418Z,101695.53
2022-09-04T17:29:18.570Z,101701.81
2022-09-04T17:30:37.072Z,101695.53
2022-09-04T17:39:52.921Z,101694.56
2022-09-04T17:40:40.031Z,101698.06
2022-09-04T17:40:56.730Z,101693.94
2022-09-04T17:42:19.870Z,101702.84
2022-09-04T17:45:03.368Z,101699.06
2022-09-04T17:47:42.812Z,101704.41
2022-09-04T17:50:18.199Z,101709.72
2022-09-04T17:53:00.750Z,101711.91
2022-09-04T17:55:39.199Z,101710.47
2022-09-04T17:58:35.290Z,101713.91
2022-09-04T18:01:17.032Z,101708.44
2022-09-04T18:04:22.009Z,101710.63
2022-09-04T18:07:22.016Z,101710.47
2022-09-04T18:10:04.182Z,101710.19
2022-09-04T18:12:43.609Z,101718.34
2022-09-04T18:15:33.080Z,101724.44
2022-09-04T18:18:14.774Z,101726.31
2022-09-04T18:20:53.024Z,101725.97
2022-09-04T18:23:51.109Z,101724.41
2022-09-04T18:26:40.076Z,101728.47
2022-09-04T18:30:48.335Z,101736.91
2022-09-04T18:37:18.587Z,101736.88
2022-09-04T18:37:20.785Z,101733.44
2022-09-04T18:39:09.060Z,101746.25
2022-09-04T18:46:41.324Z,101745.94
2022-09-04T18:50:33.083Z,101753.72
2022-09-04T18:50:34.150Z,101754.47
2022-09-04T18:51:20.846Z,101752.38
2022-09-04T18:54:00.585Z,101754.59
2022-09-04T18:56:37.662Z,101761.19
2022-09-04T18:59:16.953Z,101759.03
2022-09-04T19:01:58.137Z,101765.13
2022-09-04T19:04:44.575Z,101766.69
2022-09-04T19:07:31.849Z,101769.84
2022-09-04T19:10:12.135Z,101766.69
2022-09-04T19:12:57.849Z,101777.78
2022-09-04T19:15:37.798Z,101771.81
2022-09-04T19:18:20.430Z,101776.88
2022-09-04T19:21:05.152Z,101775.41
2022-09-04T19:23:43.984Z,101772.88
2022-09-04T19:26:25.948Z,101775.06
2022-09-04T19:29:08.182Z,101775.78
2022-09-04T19:31:49.368Z,101767.88
2022-09-04T19:34:33.560Z,101777.56
2022-09-04T19:37:54.386Z,101769.72
2022-09-04T19:46:04.738Z,101778.09
2022-09-04T19:46:05.052Z,101776.78
2022-09-04T19:51:19.457Z,101776.25
2022-09-04T19:53:31.249Z,101775.69
2022-09-04T19:55:23.746Z,101772.53
2022-09-04T19:58:07.611Z,101772.69
2022-09-04T20:00:49.130Z,101770.56
2022-09-04T20:03:29.507Z,101769.09
2022-09-04T20:06:20.407Z,101770.88
2022-09-04T20:09:03.308Z,101779.78
2022-09-04T20:11:40.890Z,101780.69
2022-09-04T20:14:22.814Z,101778.69
2022-09-04T20:17:08.860Z,101772.66
2022-09-04T20:19:48.760Z,101767.91
2022-09-04T20:22:37.014Z,101770.16
2022-09-04T20:25:28.276Z,101768.81
2022-09-04T20:28:15.188Z,101771.50
2022-09-04T20:31:04.907Z,101767.72
2022-09-04T20:34:04.718Z,101773.66
2022-09-04T20:36:49.158Z,101778.16
2022-09-04T20:39:28.078Z,101780.00
2022-09-04T20:42:07.192Z,101790.56
2022-09-04T20:47:27.916Z,101776.19
2022-09-04T20:52:45.208Z,101783.63
2022-09-04T20:52:51.378Z,101783.72
2022-09-04T20:53:59.652Z,101786.63
2022-09-04T20:58:13.928Z,101787.19
2022-09-04T21:03:11.577Z,101791.66
2022-09-04T21:03:23.114Z,101791.44
2022-09-04T21:06:10.363Z,101783.56
2022-09-04T21:08:49.961Z,101786.91
2022-09-04T21:11:40.653Z,101786.25
2022-09-04T21:14:20.972Z,101777.13
2022-09-04T21:17:33.888Z,101797.22
2022-09-04T21:20:24.386Z,101793.81
2022-09-04T21:23:21.773Z,101793.50
2022-09-04T21:26:08.406Z,101794.72
2022-09-04T21:29:17.750Z,101797.25
2022-09-04T21:32:14.999Z,101801.38
2022-09-04T21:35:07.163Z,101795.88
2022-09-04T21:37:47.816Z,101798.75
2022-09-04T21:40:56.259Z,101802.34
2022-09-04T21:43:48.186Z,101809.81
2022-09-04T21:46:48.893Z,101804.22
2022-09-04T21:49:46.000Z,101799.50
2022-09-04T21:52:45.995Z,101801.25
2022-09-04T22:00:25.407Z,101796.19
2022-09-04T22:02:35.693Z,101796.72
2022-09-04T22:02:40.285Z,101804.09
2022-09-04T22:05:18.366Z,101802.50
2022-09-04T22:13:34.299Z,101804.63
2022-09-04T22:13:46.789Z,101811.63
2022-09-04T22:14:17.345Z,101818.81
2022-09-04T22:17:07.731Z,101814.44
2022-09-04T22:20:20.527Z,101812.50
2022-09-04T22:23:25.702Z,101813.41
2022-09-04T22:26:23.790Z,101810.72
2022-09-04T22:29:39.985Z,101818.00
2022-09-04T22:32:38.292Z,101804.84
2022-09-04T22:35:42.465Z,101810.56
2022-09-04T22:38:37.082Z,101813.09
2022-09-04T22:41:42.600Z,101810.63
2022-09-04T22:44:27.129Z,101808.28
2022-09-04T22:47:27.169Z,101807.56
2022-09-04T22:50:48.770Z,101806.88
2022-09-04T22:53:50.797Z,101804.94
2022-09-04T22:56:46.565Z,101801.34
2022-09-04T22:59:42.886Z,101799.16
2022-09-04T23:03:07.247Z,101796.78
2022-09-04T23:05:49.402Z,101799.31
2022-09-04T23:13:50.284Z,101798.25
2022-09-04T23:13:59.243Z,101793.97
2022-09-04T23:15:08.427Z,101792.41
2022-09-04T23:18:05.806Z,101794.41
2022-09-04T23:26:35.159Z,101793.34
2022-09-04T23:26:47.563Z,101791.38
2022-09-04T23:27:29.342Z,101797.50
2022-09-04T23:30:26.498Z,101787.88
2022-09-04T23:33:32.109Z,101792.84
2022-09-04T23:36:29.672Z,101782.44
2022-09-04T23:39:28.064Z,101782.59
2022-09-04T23:42:17.960Z,101788.19
2022-09-04T23:45:20.037Z,101787.13
2022-09-04T23:48:06.447Z,101788.84
2022-09-04T23:50:50.388Z,101777.16
2022-09-04T23:53:33.561Z,101777.66
2022-09-04T23:56:11.508Z,101778.00
2022-09-04T23:59:21.477Z,101779.03
